New Market, Virginia
Current Conditions -  °F | °C
As of 3:55 AM on Wednesday 26 Nov 2014 (Local Time) from K8W2 Reporting Station
Overcast Overcast  
Wind Chill: 37°   Ceiling: 3700
Heat Index: 42°   Visibility: 10mi
Dew Point: 33°   Wind: 8mph
Humidity: 71%   Direction: 10°N
Pressure: 30.06"   Gusts: NA
Location:  38.65°N, 78.67°W
Report Text: K8W2 260855Z AUTO 01007KT 10SM OVC037 05/01 A3006 RMK AO1 T00540006
Loading
Personal Weather Stations






























Interactive Weather Map New forecast layout! Learn more

10-Day Weather Forecast

Advertisements
Track Severe Weather on mobile